sensor_id;sensor_type;location;lat;lon;timestamp;P1;durP1;ratioP1;P2;durP2;ratioP2
58101;SDS011;52034;51.926;6.320;2022-12-15T00:00:04;27.48;;;19.05;;
58101;SDS011;52034;51.926;6.320;2022-12-15T00:01:27;30.60;;;18.92;;
58101;SDS011;52034;51.926;6.320;2022-12-15T00:02:46;30.25;;;18.80;;
58101;SDS011;52034;51.926;6.320;2022-12-15T00:04:05;30.98;;;18.60;;
58101;SDS011;52034;51.926;6.320;2022-12-15T00:05:24;26.55;;;18.17;;
58101;SDS011;52034;51.926;6.320;2022-12-15T00:06:44;27.20;;;18.02;;
58101;SDS011;52034;51.926;6.320;2022-12-15T00:08:07;26.73;;;18.63;;
58101;SDS011;52034;51.926;6.320;2022-12-15T00:09:26;28.02;;;19.25;;
58101;SDS011;52034;51.926;6.320;2022-12-15T00:10:45;30.70;;;19.40;;
58101;SDS011;52034;51.926;6.320;2022-12-15T00:12:05;25.40;;;18.50;;
58101;SDS011;52034;51.926;6.320;2022-12-15T00:13:24;28.67;;;18.60;;
58101;SDS011;52034;51.926;6.320;2022-12-15T00:14:46;27.52;;;18.45;;
58101;SDS011;52034;51.926;6.320;2022-12-15T00:16:05;24.60;;;17.25;;
58101;SDS011;52034;51.926;6.320;2022-12-15T00:17:25;29.75;;;19.42;;
58101;SDS011;52034;51.926;6.320;2022-12-15T00:18:44;30.63;;;18.80;;
58101;SDS011;52034;51.926;6.320;2022-12-15T00:20:03;26.77;;;18.52;;
58101;SDS011;52034;51.926;6.320;2022-12-15T00:21:22;25.73;;;17.95;;
58101;SDS011;52034;51.926;6.320;2022-12-15T00:22:41;27.60;;;18.05;;
58101;SDS011;52034;51.926;6.320;2022-12-15T00:24:00;28.27;;;18.85;;
58101;SDS011;52034;51.926;6.320;2022-12-15T00:25:19;26.67;;;18.10;;
58101;SDS011;52034;51.926;6.320;2022-12-15T00:26:38;29.75;;;18.83;;
58101;SDS011;52034;51.926;6.320;2022-12-15T00:27:57;29.10;;;19.77;;
58101;SDS011;52034;51.926;6.320;2022-12-15T00:29:16;30.17;;;18.00;;
58101;SDS011;52034;51.926;6.320;2022-12-15T00:30:35;28.83;;;18.45;;
58101;SDS011;52034;51.926;6.320;2022-12-15T00:31:54;27.90;;;19.30;;
58101;SDS011;52034;51.926;6.320;2022-12-15T00:33:13;29.77;;;18.42;;
58101;SDS011;52034;51.926;6.320;2022-12-15T00:34:32;29.67;;;19.27;;
58101;SDS011;52034;51.926;6.320;2022-12-15T00:35:52;31.60;;;19.95;;
58101;SDS011;52034;51.926;6.320;2022-12-15T00:37:12;32.60;;;20.15;;
58101;SDS011;52034;51.926;6.320;2022-12-15T00:38:31;31.55;;;19.58;;
58101;SDS011;52034;51.926;6.320;2022-12-15T00:39:43;29.10;;;18.85;;
58101;SDS011;52034;51.926;6.320;2022-12-15T00:40:44;30.67;;;19.63;;
58101;SDS011;52034;51.926;6.320;2022-12-15T00:41:44;26.13;;;18.27;;
58101;SDS011;52034;51.926;6.320;2022-12-15T00:42:44;27.10;;;18.33;;
58101;SDS011;52034;51.926;6.320;2022-12-15T00:43:45;26.60;;;18.13;;
58101;SDS011;52034;51.926;6.320;2022-12-15T00:44:45;28.35;;;18.73;;
58101;SDS011;52034;51.926;6.320;2022-12-15T00:45:46;30.20;;;19.33;;
58101;SDS011;52034;51.926;6.320;2022-12-15T00:47:04;26.48;;;18.90;;
58101;SDS011;52034;51.926;6.320;2022-12-15T00:48:05;25.27;;;18.13;;
58101;SDS011;52034;51.926;6.320;2022-12-15T00:49:05;27.15;;;18.27;;
58101;SDS011;52034;51.926;6.320;2022-12-15T00:50:26;28.67;;;19.42;;
58101;SDS011;52034;51.926;6.320;2022-12-15T00:51:45;31.33;;;19.52;;
58101;SDS011;52034;51.926;6.320;2022-12-15T00:53:04;27.33;;;18.48;;
58101;SDS011;52034;51.926;6.320;2022-12-15T00:54:22;26.58;;;18.33;;
58101;SDS011;52034;51.926;6.320;2022-12-15T00:55:41;27.20;;;18.70;;
58101;SDS011;52034;51.926;6.320;2022-12-15T00:57:00;27.42;;;18.63;;
58101;SDS011;52034;51.926;6.320;2022-12-15T00:58:19;24.42;;;17.75;;
58101;SDS011;52034;51.926;6.320;2022-12-15T00:59:38;27.17;;;17.90;;
58101;SDS011;52034;51.926;6.320;2022-12-15T01:01:04;27.33;;;17.90;;
58101;SDS011;52034;51.926;6.320;2022-12-15T01:02:24;27.83;;;18.23;;
58101;SDS011;52034;51.926;6.320;2022-12-15T01:03:43;25.98;;;17.73;;
58101;SDS011;52034;51.926;6.320;2022-12-15T01:05:03;27.67;;;18.15;;
58101;SDS011;52034;51.926;6.320;2022-12-15T01:06:22;28.10;;;17.90;;
58101;SDS011;52034;51.926;6.320;2022-12-15T01:07:41;29.23;;;18.80;;
58101;SDS011;52034;51.926;6.320;2022-12-15T01:09:00;26.15;;;17.60;;
58101;SDS011;52034;51.926;6.320;2022-12-15T01:10:20;26.48;;;17.45;;
58101;SDS011;52034;51.926;6.320;2022-12-15T01:11:39;25.25;;;17.75;;
58101;SDS011;52034;51.926;6.320;2022-12-15T01:12:58;24.83;;;17.23;;
58101;SDS011;52034;51.926;6.320;2022-12-15T01:14:17;27.48;;;18.17;;
58101;SDS011;52034;51.926;6.320;2022-12-15T01:15:36;28.60;;;19.08;;
58101;SDS011;52034;51.926;6.320;2022-12-15T01:16:55;27.50;;;17.27;;
58101;SDS011;52034;51.926;6.320;2022-12-15T01:18:14;27.83;;;17.15;;
58101;SDS011;52034;51.926;6.320;2022-12-15T01:19:34;26.17;;;17.83;;
58101;SDS011;52034;51.926;6.320;2022-12-15T01:21:00;26.50;;;17.83;;
58101;SDS011;52034;51.926;6.320;2022-12-15T01:22:04;28.85;;;18.50;;
58101;SDS011;52034;51.926;6.320;2022-12-15T01:23:05;26.40;;;17.95;;
58101;SDS011;52034;51.926;6.320;2022-12-15T01:24:06;26.63;;;17.17;;
58101;SDS011;52034;51.926;6.320;2022-12-15T01:25:07;25.47;;;18.00;;
58101;SDS011;52034;51.926;6.320;2022-12-15T01:26:09;28.05;;;17.52;;
58101;SDS011;52034;51.926;6.320;2022-12-15T01:27:09;27.23;;;17.23;;
58101;SDS011;52034;51.926;6.320;2022-12-15T01:28:09;27.10;;;17.40;;
58101;SDS011;52034;51.926;6.320;2022-12-15T01:29:10;29.70;;;18.33;;
58101;SDS011;52034;51.926;6.320;2022-12-15T01:30:11;27.23;;;17.63;;
58101;SDS011;52034;51.926;6.320;2022-12-15T01:31:13;24.05;;;17.15;;
58101;SDS011;52034;51.926;6.320;2022-12-15T01:32:14;26.77;;;17.40;;
58101;SDS011;52034;51.926;6.320;2022-12-15T01:33:15;26.63;;;17.00;;
58101;SDS011;52034;51.926;6.320;2022-12-15T01:34:17;28.30;;;17.17;;
58101;SDS011;52034;51.926;6.320;2022-12-15T01:35:19;27.73;;;17.35;;
58101;SDS011;52034;51.926;6.320;2022-12-15T01:36:20;28.58;;;17.45;;
58101;SDS011;52034;51.926;6.320;2022-12-15T01:37:20;25.13;;;16.40;;
58101;SDS011;52034;51.926;6.320;2022-12-15T01:38:20;22.47;;;16.70;;
58101;SDS011;52034;51.926;6.320;2022-12-15T01:39:21;24.00;;;16.50;;
58101;SDS011;52034;51.926;6.320;2022-12-15T01:40:21;23.20;;;16.17;;
58101;SDS011;52034;51.926;6.320;2022-12-15T01:41:40;27.80;;;17.42;;
58101;SDS011;52034;51.926;6.320;2022-12-15T01:42:41;25.47;;;17.30;;
58101;SDS011;52034;51.926;6.320;2022-12-15T01:43:41;25.70;;;17.33;;
58101;SDS011;52034;51.926;6.320;2022-12-15T01:44:43;27.00;;;17.80;;
58101;SDS011;52034;51.926;6.320;2022-12-15T01:45:49;24.70;;;16.85;;
58101;SDS011;52034;51.926;6.320;2022-12-15T01:46:55;27.08;;;16.80;;
58101;SDS011;52034;51.926;6.320;2022-12-15T01:47:56;26.70;;;17.37;;
58101;SDS011;52034;51.926;6.320;2022-12-15T01:49:10;27.00;;;17.00;;
58101;SDS011;52034;51.926;6.320;2022-12-15T01:50:15;25.65;;;16.90;;
58101;SDS011;52034;51.926;6.320;2022-12-15T01:51:18;24.98;;;16.65;;
58101;SDS011;52034;51.926;6.320;2022-12-15T01:52:24;24.50;;;16.08;;
58101;SDS011;52034;51.926;6.320;2022-12-15T01:53:24;25.07;;;16.83;;
58101;SDS011;52034;51.926;6.320;2022-12-15T01:55:27;23.38;;;16.08;;
58101;SDS011;52034;51.926;6.320;2022-12-15T01:56:30;24.85;;;16.80;;
58101;SDS011;52034;51.926;6.320;2022-12-15T01:57:35;25.48;;;17.05;;
58101;SDS011;52034;51.926;6.320;2022-12-15T01:59:41;26.52;;;17.70;;
58101;SDS011;52034;51.926;6.320;2022-12-15T02:00:49;23.02;;;16.92;;
58101;SDS011;52034;51.926;6.320;2022-12-15T02:01:50;24.03;;;16.70;;
58101;SDS011;52034;51.926;6.320;2022-12-15T02:02:50;25.87;;;17.33;;
58101;SDS011;52034;51.926;6.320;2022-12-15T02:03:50;21.40;;;16.40;;
58101;SDS011;52034;51.926;6.320;2022-12-15T02:04:51;26.43;;;16.80;;
58101;SDS011;52034;51.926;6.320;2022-12-15T02:05:55;24.33;;;17.08;;
58101;SDS011;52034;51.926;6.320;2022-12-15T02:07:57;26.50;;;17.48;;
58101;SDS011;52034;51.926;6.320;2022-12-15T02:08:59;25.67;;;17.02;;
58101;SDS011;52034;51.926;6.320;2022-12-15T02:10:00;28.90;;;18.60;;
58101;SDS011;52034;51.926;6.320;2022-12-15T02:11:13;24.45;;;16.92;;
58101;SDS011;52034;51.926;6.320;2022-12-15T02:13:54;24.70;;;16.98;;
58101;SDS011;52034;51.926;6.320;2022-12-15T02:15:11;22.55;;;16.02;;
58101;SDS011;52034;51.926;6.320;2022-12-15T02:16:34;24.50;;;17.35;;
58101;SDS011;52034;51.926;6.320;2022-12-15T02:22:14;26.40;;;17.83;;
58101;SDS011;52034;51.926;6.320;2022-12-15T02:24:58;23.15;;;17.00;;
58101;SDS011;52034;51.926;6.320;2022-12-15T02:28:51;27.35;;;17.83;;
58101;SDS011;52034;51.926;6.320;2022-12-15T02:34:26;24.27;;;16.35;;
58101;SDS011;52034;51.926;6.320;2022-12-15T02:37:05;25.77;;;17.05;;
58101;SDS011;52034;51.926;6.320;2022-12-15T02:38:10;23.33;;;17.05;;
58101;SDS011;52034;51.926;6.320;2022-12-15T02:39:11;26.33;;;17.17;;
58101;SDS011;52034;51.926;6.320;2022-12-15T02:40:11;27.10;;;18.37;;
58101;SDS011;52034;51.926;6.320;2022-12-15T02:41:32;27.27;;;18.23;;
58101;SDS011;52034;51.926;6.320;2022-12-15T02:42:35;30.33;;;17.73;;
58101;SDS011;52034;51.926;6.320;2022-12-15T02:43:44;27.02;;;18.20;;
58101;SDS011;52034;51.926;6.320;2022-12-15T02:44:49;26.43;;;18.00;;
58101;SDS011;52034;51.926;6.320;2022-12-15T02:46:03;24.65;;;17.13;;
58101;SDS011;52034;51.926;6.320;2022-12-15T02:48:52;22.55;;;16.67;;
58101;SDS011;52034;51.926;6.320;2022-12-15T02:50:04;25.08;;;17.15;;
58101;SDS011;52034;51.926;6.320;2022-12-15T02:51:18;26.00;;;17.75;;
58101;SDS011;52034;51.926;6.320;2022-12-15T02:55:55;23.35;;;16.83;;
58101;SDS011;52034;51.926;6.320;2022-12-15T02:57:11;24.45;;;17.15;;
58101;SDS011;52034;51.926;6.320;2022-12-15T02:58:31;21.52;;;16.10;;
58101;SDS011;52034;51.926;6.320;2022-12-15T02:59:52;27.13;;;17.40;;
58101;SDS011;52034;51.926;6.320;2022-12-15T03:01:01;29.00;;;17.70;;
58101;SDS011;52034;51.926;6.320;2022-12-15T03:02:07;24.98;;;16.90;;
58101;SDS011;52034;51.926;6.320;2022-12-15T03:03:09;22.98;;;16.65;;
58101;SDS011;52034;51.926;6.320;2022-12-15T03:04:12;27.95;;;17.08;;
58101;SDS011;52034;51.926;6.320;2022-12-15T03:05:13;25.23;;;16.47;;
58101;SDS011;52034;51.926;6.320;2022-12-15T03:06:14;23.40;;;16.65;;
58101;SDS011;52034;51.926;6.320;2022-12-15T03:07:15;24.58;;;17.15;;
58101;SDS011;52034;51.926;6.320;2022-12-15T03:08:16;25.17;;;17.00;;
58101;SDS011;52034;51.926;6.320;2022-12-15T03:09:16;25.73;;;16.43;;
58101;SDS011;52034;51.926;6.320;2022-12-15T03:10:17;25.13;;;16.70;;
58101;SDS011;52034;51.926;6.320;2022-12-15T03:11:19;22.58;;;16.58;;
58101;SDS011;52034;51.926;6.320;2022-12-15T03:12:19;28.00;;;17.20;;
58101;SDS011;52034;51.926;6.320;2022-12-15T03:13:19;24.57;;;17.00;;
58101;SDS011;52034;51.926;6.320;2022-12-15T03:14:20;24.60;;;16.50;;
58101;SDS011;52034;51.926;6.320;2022-12-15T03:15:21;26.27;;;16.83;;
58101;SDS011;52034;51.926;6.320;2022-12-15T03:16:21;25.27;;;16.87;;
58101;SDS011;52034;51.926;6.320;2022-12-15T03:17:22;23.70;;;16.13;;
58101;SDS011;52034;51.926;6.320;2022-12-15T03:18:22;23.87;;;16.47;;
58101;SDS011;52034;51.926;6.320;2022-12-15T03:19:23;22.45;;;15.98;;
58101;SDS011;52034;51.926;6.320;2022-12-15T03:20:24;25.40;;;17.17;;
58101;SDS011;52034;51.926;6.320;2022-12-15T03:21:25;26.93;;;16.77;;
58101;SDS011;52034;51.926;6.320;2022-12-15T03:22:25;23.97;;;16.30;;
58101;SDS011;52034;51.926;6.320;2022-12-15T03:23:25;25.63;;;16.87;;
58101;SDS011;52034;51.926;6.320;2022-12-15T03:24:26;24.23;;;16.57;;
58101;SDS011;52034;51.926;6.320;2022-12-15T03:25:26;27.63;;;16.57;;
58101;SDS011;52034;51.926;6.320;2022-12-15T03:26:27;25.63;;;16.63;;
58101;SDS011;52034;51.926;6.320;2022-12-15T03:27:27;24.63;;;16.90;;
58101;SDS011;52034;51.926;6.320;2022-12-15T03:28:28;23.00;;;16.67;;
58101;SDS011;52034;51.926;6.320;2022-12-15T03:29:29;23.83;;;16.87;;
58101;SDS011;52034;51.926;6.320;2022-12-15T03:30:29;23.53;;;15.80;;
58101;SDS011;52034;51.926;6.320;2022-12-15T03:31:29;24.97;;;17.70;;
58101;SDS011;52034;51.926;6.320;2022-12-15T03:32:30;22.80;;;16.57;;
58101;SDS011;52034;51.926;6.320;2022-12-15T03:33:31;22.13;;;16.80;;
58101;SDS011;52034;51.926;6.320;2022-12-15T03:34:32;23.58;;;17.25;;
58101;SDS011;52034;51.926;6.320;2022-12-15T03:35:33;19.60;;;15.50;;
58101;SDS011;52034;51.926;6.320;2022-12-15T03:36:33;22.67;;;15.90;;
58101;SDS011;52034;51.926;6.320;2022-12-15T03:37:33;23.23;;;16.77;;
58101;SDS011;52034;51.926;6.320;2022-12-15T03:38:34;22.90;;;16.00;;
58101;SDS011;52034;51.926;6.320;2022-12-15T03:39:34;24.10;;;16.23;;
58101;SDS011;52034;51.926;6.320;2022-12-15T03:40:34;24.97;;;17.43;;
58101;SDS011;52034;51.926;6.320;2022-12-15T03:41:35;25.07;;;17.03;;
58101;SDS011;52034;51.926;6.320;2022-12-15T03:42:35;24.23;;;16.17;;
58101;SDS011;52034;51.926;6.320;2022-12-15T03:43:47;27.02;;;16.65;;
58101;SDS011;52034;51.926;6.320;2022-12-15T03:44:48;23.97;;;16.50;;
58101;SDS011;52034;51.926;6.320;2022-12-15T03:45:48;24.97;;;16.60;;
58101;SDS011;52034;51.926;6.320;2022-12-15T03:46:48;22.90;;;15.93;;
58101;SDS011;52034;51.926;6.320;2022-12-15T03:47:49;23.43;;;16.27;;
58101;SDS011;52034;51.926;6.320;2022-12-15T03:48:50;25.05;;;16.02;;
58101;SDS011;52034;51.926;6.320;2022-12-15T03:49:50;26.57;;;16.73;;
58101;SDS011;52034;51.926;6.320;2022-12-15T03:50:50;24.03;;;16.37;;
58101;SDS011;52034;51.926;6.320;2022-12-15T03:51:51;22.77;;;16.23;;
58101;SDS011;52034;51.926;6.320;2022-12-15T03:52:54;22.25;;;16.27;;
58101;SDS011;52034;51.926;6.320;2022-12-15T03:53:58;24.25;;;16.38;;
58101;SDS011;52034;51.926;6.320;2022-12-15T03:54:59;22.57;;;16.17;;
58101;SDS011;52034;51.926;6.320;2022-12-15T03:55:59;27.67;;;16.80;;
58101;SDS011;52034;51.926;6.320;2022-12-15T03:56:59;22.73;;;16.20;;
58101;SDS011;52034;51.926;6.320;2022-12-15T03:58:00;25.17;;;16.60;;
58101;SDS011;52034;51.926;6.320;2022-12-15T03:59:00;23.10;;;16.33;;
58101;SDS011;52034;51.926;6.320;2022-12-15T04:00:00;22.40;;;15.57;;
58101;SDS011;52034;51.926;6.320;2022-12-15T04:02:19;24.65;;;16.75;;
58101;SDS011;52034;51.926;6.320;2022-12-15T04:03:20;24.75;;;17.00;;
58101;SDS011;52034;51.926;6.320;2022-12-15T04:05:26;24.95;;;16.10;;
58101;SDS011;52034;51.926;6.320;2022-12-15T04:06:29;23.88;;;16.50;;
58101;SDS011;52034;51.926;6.320;2022-12-15T04:07:29;24.88;;;16.98;;
58101;SDS011;52034;51.926;6.320;2022-12-15T04:08:30;26.03;;;16.23;;
58101;SDS011;52034;51.926;6.320;2022-12-15T04:09:30;25.30;;;17.60;;
58101;SDS011;52034;51.926;6.320;2022-12-15T04:10:31;25.33;;;16.27;;
58101;SDS011;52034;51.926;6.320;2022-12-15T04:11:33;24.50;;;16.85;;
58101;SDS011;52034;51.926;6.320;2022-12-15T04:12:34;24.80;;;16.33;;
58101;SDS011;52034;51.926;6.320;2022-12-15T04:13:34;23.27;;;16.30;;
58101;SDS011;52034;51.926;6.320;2022-12-15T04:14:34;24.83;;;16.90;;
58101;SDS011;52034;51.926;6.320;2022-12-15T04:15:35;24.27;;;16.83;;
58101;SDS011;52034;51.926;6.320;2022-12-15T04:16:37;26.85;;;16.88;;
58101;SDS011;52034;51.926;6.320;2022-12-15T04:17:37;21.33;;;16.07;;
58101;SDS011;52034;51.926;6.320;2022-12-15T04:18:38;24.10;;;16.57;;
58101;SDS011;52034;51.926;6.320;2022-12-15T04:19:38;22.60;;;16.37;;
58101;SDS011;52034;51.926;6.320;2022-12-15T04:20:57;24.60;;;17.67;;
58101;SDS011;52034;51.926;6.320;2022-12-15T04:21:57;26.40;;;16.33;;
58101;SDS011;52034;51.926;6.320;2022-12-15T04:23:01;24.15;;;17.05;;
58101;SDS011;52034;51.926;6.320;2022-12-15T04:24:01;24.33;;;16.23;;
58101;SDS011;52034;51.926;6.320;2022-12-15T04:25:20;26.17;;;16.60;;
58101;SDS011;52034;51.926;6.320;2022-12-15T04:26:41;25.63;;;17.33;;
58101;SDS011;52034;51.926;6.320;2022-12-15T04:28:00;26.25;;;17.45;;
58101;SDS011;52034;51.926;6.320;2022-12-15T04:29:20;27.17;;;17.70;;
58101;SDS011;52034;51.926;6.320;2022-12-15T04:30:39;23.50;;;16.73;;
58101;SDS011;52034;51.926;6.320;2022-12-15T04:32:03;25.15;;;18.08;;
58101;SDS011;52034;51.926;6.320;2022-12-15T04:33:22;27.13;;;18.77;;
58101;SDS011;52034;51.926;6.320;2022-12-15T04:34:42;25.48;;;16.33;;
58101;SDS011;52034;51.926;6.320;2022-12-15T04:36:01;25.98;;;17.20;;
58101;SDS011;52034;51.926;6.320;2022-12-15T04:37:20;25.40;;;16.85;;
58101;SDS011;52034;51.926;6.320;2022-12-15T04:38:39;24.25;;;17.08;;
58101;SDS011;52034;51.926;6.320;2022-12-15T04:39:58;26.75;;;17.52;;
58101;SDS011;52034;51.926;6.320;2022-12-15T04:41:18;26.23;;;17.27;;
58101;SDS011;52034;51.926;6.320;2022-12-15T04:42:41;26.85;;;17.70;;
58101;SDS011;52034;51.926;6.320;2022-12-15T04:44:03;22.38;;;16.42;;
58101;SDS011;52034;51.926;6.320;2022-12-15T04:45:23;24.85;;;17.45;;
58101;SDS011;52034;51.926;6.320;2022-12-15T04:46:43;25.67;;;17.42;;
58101;SDS011;52034;51.926;6.320;2022-12-15T04:48:02;24.50;;;17.25;;
58101;SDS011;52034;51.926;6.320;2022-12-15T04:49:22;25.08;;;17.50;;
58101;SDS011;52034;51.926;6.320;2022-12-15T04:50:41;27.45;;;17.83;;
58101;SDS011;52034;51.926;6.320;2022-12-15T04:51:59;26.95;;;18.52;;
58101;SDS011;52034;51.926;6.320;2022-12-15T04:53:18;29.67;;;18.60;;
58101;SDS011;52034;51.926;6.320;2022-12-15T04:54:38;28.55;;;17.75;;
58101;SDS011;52034;51.926;6.320;2022-12-15T04:55:57;27.23;;;18.10;;
58101;SDS011;52034;51.926;6.320;2022-12-15T04:57:16;26.40;;;18.27;;
58101;SDS011;52034;51.926;6.320;2022-12-15T04:58:35;26.80;;;18.08;;
58101;SDS011;52034;51.926;6.320;2022-12-15T04:59:54;29.83;;;18.45;;
58101;SDS011;52034;51.926;6.320;2022-12-15T05:01:13;25.50;;;17.05;;
58101;SDS011;52034;51.926;6.320;2022-12-15T05:02:32;27.48;;;18.02;;
58101;SDS011;52034;51.926;6.320;2022-12-15T05:03:51;29.58;;;17.75;;
58101;SDS011;52034;51.926;6.320;2022-12-15T05:05:10;28.38;;;18.45;;
58101;SDS011;52034;51.926;6.320;2022-12-15T05:06:30;26.67;;;18.10;;
58101;SDS011;52034;51.926;6.320;2022-12-15T05:07:49;29.45;;;18.42;;
58101;SDS011;52034;51.926;6.320;2022-12-15T05:09:08;26.08;;;17.67;;
58101;SDS011;52034;51.926;6.320;2022-12-15T05:10:27;25.95;;;17.85;;
58101;SDS011;52034;51.926;6.320;2022-12-15T05:11:46;26.30;;;17.58;;
58101;SDS011;52034;51.926;6.320;2022-12-15T05:13:05;32.28;;;20.25;;
58101;SDS011;52034;51.926;6.320;2022-12-15T05:14:25;27.88;;;18.63;;
58101;SDS011;52034;51.926;6.320;2022-12-15T05:15:44;28.60;;;19.40;;
58101;SDS011;52034;51.926;6.320;2022-12-15T05:17:03;28.02;;;17.90;;
58101;SDS011;52034;51.926;6.320;2022-12-15T05:18:22;30.60;;;19.15;;
58101;SDS011;52034;51.926;6.320;2022-12-15T05:19:42;26.23;;;18.48;;
58101;SDS011;52034;51.926;6.320;2022-12-15T05:21:01;27.40;;;18.30;;
58101;SDS011;52034;51.926;6.320;2022-12-15T05:22:20;30.73;;;18.90;;
58101;SDS011;52034;51.926;6.320;2022-12-15T05:23:39;26.25;;;18.67;;
58101;SDS011;52034;51.926;6.320;2022-12-15T05:24:58;28.38;;;18.65;;
58101;SDS011;52034;51.926;6.320;2022-12-15T05:26:17;27.58;;;18.73;;
58101;SDS011;52034;51.926;6.320;2022-12-15T05:27:36;28.33;;;19.38;;
58101;SDS011;52034;51.926;6.320;2022-12-15T05:28:55;26.05;;;18.27;;
58101;SDS011;52034;51.926;6.320;2022-12-15T05:30:14;28.60;;;18.70;;
58101;SDS011;52034;51.926;6.320;2022-12-15T05:31:33;26.83;;;19.30;;
58101;SDS011;52034;51.926;6.320;2022-12-15T05:32:53;29.00;;;18.13;;
58101;SDS011;52034;51.926;6.320;2022-12-15T05:33:54;28.17;;;19.50;;
58101;SDS011;52034;51.926;6.320;2022-12-15T05:34:55;28.77;;;19.05;;
58101;SDS011;52034;51.926;6.320;2022-12-15T05:35:56;28.03;;;18.23;;
58101;SDS011;52034;51.926;6.320;2022-12-15T05:36:57;28.77;;;19.27;;
58101;SDS011;52034;51.926;6.320;2022-12-15T05:37:59;28.02;;;19.00;;
58101;SDS011;52034;51.926;6.320;2022-12-15T05:39:02;27.17;;;18.40;;
58101;SDS011;52034;51.926;6.320;2022-12-15T05:40:03;27.92;;;18.90;;
58101;SDS011;52034;51.926;6.320;2022-12-15T05:41:04;27.77;;;18.90;;
58101;SDS011;52034;51.926;6.320;2022-12-15T05:42:04;29.80;;;19.07;;
58101;SDS011;52034;51.926;6.320;2022-12-15T05:43:05;28.17;;;18.80;;
58101;SDS011;52034;51.926;6.320;2022-12-15T05:44:05;27.53;;;19.67;;
58101;SDS011;52034;51.926;6.320;2022-12-15T05:45:06;27.08;;;18.95;;
58101;SDS011;52034;51.926;6.320;2022-12-15T05:46:07;29.58;;;19.30;;
58101;SDS011;52034;51.926;6.320;2022-12-15T05:47:08;29.60;;;19.00;;
58101;SDS011;52034;51.926;6.320;2022-12-15T05:48:08;31.53;;;19.53;;
58101;SDS011;52034;51.926;6.320;2022-12-15T05:49:10;27.73;;;18.77;;
58101;SDS011;52034;51.926;6.320;2022-12-15T05:50:12;30.23;;;20.23;;
58101;SDS011;52034;51.926;6.320;2022-12-15T05:51:13;27.77;;;18.30;;
58101;SDS011;52034;51.926;6.320;2022-12-15T05:52:14;31.02;;;21.58;;
58101;SDS011;52034;51.926;6.320;2022-12-15T05:53:14;32.67;;;21.37;;
58101;SDS011;52034;51.926;6.320;2022-12-15T05:54:15;33.97;;;21.93;;
58101;SDS011;52034;51.926;6.320;2022-12-15T05:55:17;34.88;;;22.92;;
58101;SDS011;52034;51.926;6.320;2022-12-15T05:56:18;34.85;;;21.70;;
58101;SDS011;52034;51.926;6.320;2022-12-15T05:57:19;28.97;;;20.63;;
58101;SDS011;52034;51.926;6.320;2022-12-15T05:58:20;30.90;;;20.77;;
58101;SDS011;52034;51.926;6.320;2022-12-15T05:59:20;28.33;;;19.13;;
58101;SDS011;52034;51.926;6.320;2022-12-15T06:00:20;30.90;;;19.40;;
58101;SDS011;52034;51.926;6.320;2022-12-15T06:01:22;30.35;;;19.45;;
58101;SDS011;52034;51.926;6.320;2022-12-15T06:02:23;29.02;;;19.80;;
58101;SDS011;52034;51.926;6.320;2022-12-15T06:03:24;32.63;;;21.00;;
58101;SDS011;52034;51.926;6.320;2022-12-15T06:04:24;29.30;;;20.17;;
58101;SDS011;52034;51.926;6.320;2022-12-15T06:05:24;28.63;;;19.70;;
58101;SDS011;52034;51.926;6.320;2022-12-15T06:06:25;29.67;;;19.60;;
58101;SDS011;52034;51.926;6.320;2022-12-15T06:07:25;30.17;;;19.10;;
58101;SDS011;52034;51.926;6.320;2022-12-15T06:08:27;31.03;;;20.93;;
58101;SDS011;52034;51.926;6.320;2022-12-15T06:09:28;29.13;;;19.73;;
58101;SDS011;52034;51.926;6.320;2022-12-15T06:10:29;31.63;;;21.03;;
58101;SDS011;52034;51.926;6.320;2022-12-15T06:11:29;27.60;;;18.87;;
58101;SDS011;52034;51.926;6.320;2022-12-15T06:12:29;30.13;;;20.07;;
58101;SDS011;52034;51.926;6.320;2022-12-15T06:13:30;29.97;;;20.07;;
58101;SDS011;52034;51.926;6.320;2022-12-15T06:14:33;29.40;;;19.38;;
58101;SDS011;52034;51.926;6.320;2022-12-15T06:15:35;29.92;;;20.27;;
58101;SDS011;52034;51.926;6.320;2022-12-15T06:16:35;26.87;;;19.00;;
58101;SDS011;52034;51.926;6.320;2022-12-15T06:17:36;29.27;;;20.53;;
58101;SDS011;52034;51.926;6.320;2022-12-15T06:18:37;32.27;;;20.83;;
58101;SDS011;52034;51.926;6.320;2022-12-15T06:19:39;32.30;;;20.73;;
58101;SDS011;52034;51.926;6.320;2022-12-15T06:20:40;32.00;;;20.53;;
58101;SDS011;52034;51.926;6.320;2022-12-15T06:21:40;29.57;;;20.03;;
58101;SDS011;52034;51.926;6.320;2022-12-15T06:22:40;28.87;;;20.43;;
58101;SDS011;52034;51.926;6.320;2022-12-15T06:23:41;31.83;;;20.27;;
58101;SDS011;52034;51.926;6.320;2022-12-15T06:24:41;31.03;;;21.63;;
58101;SDS011;52034;51.926;6.320;2022-12-15T06:25:42;30.90;;;20.53;;
58101;SDS011;52034;51.926;6.320;2022-12-15T06:26:42;32.40;;;20.13;;
58101;SDS011;52034;51.926;6.320;2022-12-15T06:27:42;35.67;;;22.10;;
58101;SDS011;52034;51.926;6.320;2022-12-15T06:28:43;33.87;;;21.13;;
58101;SDS011;52034;51.926;6.320;2022-12-15T06:29:43;29.20;;;20.23;;
58101;SDS011;52034;51.926;6.320;2022-12-15T06:30:44;38.80;;;25.47;;
58101;SDS011;52034;51.926;6.320;2022-12-15T06:31:44;38.53;;;24.27;;
58101;SDS011;52034;51.926;6.320;2022-12-15T06:32:45;37.00;;;24.10;;
58101;SDS011;52034;51.926;6.320;2022-12-15T06:33:45;38.40;;;24.60;;
58101;SDS011;52034;51.926;6.320;2022-12-15T06:34:46;41.80;;;25.73;;
58101;SDS011;52034;51.926;6.320;2022-12-15T06:35:47;37.88;;;23.27;;
58101;SDS011;52034;51.926;6.320;2022-12-15T06:36:48;38.50;;;23.33;;
58101;SDS011;52034;51.926;6.320;2022-12-15T06:37:49;30.50;;;21.38;;
58101;SDS011;52034;51.926;6.320;2022-12-15T06:38:50;30.40;;;20.77;;
58101;SDS011;52034;51.926;6.320;2022-12-15T06:39:51;35.03;;;22.60;;
58101;SDS011;52034;51.926;6.320;2022-12-15T06:40:54;29.03;;;20.33;;
58101;SDS011;52034;51.926;6.320;2022-12-15T06:41:56;33.38;;;20.38;;
58101;SDS011;52034;51.926;6.320;2022-12-15T06:42:56;29.93;;;21.03;;
58101;SDS011;52034;51.926;6.320;2022-12-15T06:43:56;33.67;;;21.70;;
58101;SDS011;52034;51.926;6.320;2022-12-15T06:44:57;35.35;;;22.00;;
58101;SDS011;52034;51.926;6.320;2022-12-15T06:45:58;31.60;;;21.07;;
58101;SDS011;52034;51.926;6.320;2022-12-15T06:48:00;39.47;;;24.05;;
58101;SDS011;52034;51.926;6.320;2022-12-15T06:49:00;37.17;;;23.47;;
58101;SDS011;52034;51.926;6.320;2022-12-15T06:50:01;33.63;;;22.13;;
58101;SDS011;52034;51.926;6.320;2022-12-15T06:51:03;33.87;;;22.63;;
58101;SDS011;52034;51.926;6.320;2022-12-15T06:52:04;36.30;;;23.92;;
58101;SDS011;52034;51.926;6.320;2022-12-15T06:53:04;31.87;;;22.67;;
58101;SDS011;52034;51.926;6.320;2022-12-15T06:54:05;37.03;;;22.40;;
58101;SDS011;52034;51.926;6.320;2022-12-15T06:55:05;31.73;;;20.40;;
58101;SDS011;52034;51.926;6.320;2022-12-15T06:56:07;31.67;;;21.30;;
58101;SDS011;52034;51.926;6.320;2022-12-15T06:57:11;36.25;;;22.63;;
58101;SDS011;52034;51.926;6.320;2022-12-15T06:58:12;35.10;;;23.07;;
58101;SDS011;52034;51.926;6.320;2022-12-15T06:59:13;33.97;;;22.20;;
58101;SDS011;52034;51.926;6.320;2022-12-15T07:00:14;35.70;;;22.67;;
58101;SDS011;52034;51.926;6.320;2022-12-15T07:01:15;33.13;;;21.67;;
58101;SDS011;52034;51.926;6.320;2022-12-15T07:02:17;35.10;;;22.27;;